Adriatic Sea — WDB5553 — position and weather

sailwx.info

Track history (hours):
 
Tides and Currents Weather Stations Pressure Air Temp Water Temp Dewpoint Dewpoint Depression Visibility Wind Speed Wind Dir Waves Ship Positions

Adriatic Sea

Owner: Kirby Offshore Marine, LLC, Seattle, WA. More information available from US FCC via Universal Licensing System and Coast Guard Vessel Documentation Center.

Last reported at 2014-Oct-23 11:14 UTC. Time now 2014-Oct-23 15:12 UTC.
Position N 48°04' W 125°09'.

Length 42 m; draft 16 m.

Type: Tug. MMSI: 366910890.

Date/timePositionNaut miles runAvg speedWind from/ knotsBaromVisibWave heightAir tempDewpointWater temp
2014-Oct-23 11:14N 48°04' W 125°09'4 4.7
2014-Oct-23 10:27N 48°07' W 125°07'4 4.6
2014-Oct-23 09:32N 48°11' W 125°04'4 4.3
2014-Oct-23 08:30N 48°16' W 125°02'4 4.3
2014-Oct-23 07:33N 48°19' W 124°59'4 4.4
2014-Oct-23 06:33N 48°23' W 124°57'4 4.2
2014-Oct-23 05:32N 48°26' W 124°52'6 5.8
2014-Oct-23 04:33N 48°26' W 124°44'8 7.6
2014-Oct-23 03:33N 48°23' W 124°33'8 7.8
2014-Oct-23 02:33N 48°20' W 124°23'7 7.4
2014-Oct-23 01:33N 48°17' W 124°12'7 6.6
2014-Oct-23 00:33N 48°14' W 124°03'5 5.5
2014-Oct-22 23:34N 48°12' W 123°56'6 5.6
2014-Oct-22 22:33N 48°11' W 123°47'6 6.1
2014-Oct-22 21:33N 48°11' W 123°38'5 5.3
2014-Oct-22 20:33N 48°11' W 123°30'5 5.5
2014-Oct-22 19:33N 48°08' W 123°23'3 2.0
2014-Oct-22 18:10N 48°08' W 123°27'0 0.1
2014-Oct-22 17:25N 48°08' W 123°27'0 0.0
2014-Oct-22 16:33N 48°08' W 123°27'0 0.0
2014-Oct-22 15:27N 48°08' W 123°27'0 0.0
2014-Oct-22 14:30N 48°08' W 123°27'0 0.0
2014-Oct-22 13:18N 48°08' W 123°27'0 0.0
2014-Oct-22 12:33N 48°08' W 123°27'0 0.0
2014-Oct-22 11:30N 48°08' W 123°27'0 0.1
2014-Oct-22 10:21N 48°08' W 123°27'0 0.0
2014-Oct-22 07:30N 48°08' W 123°27'0 0.0
2014-Oct-22 06:33N 48°08' W 123°27'0 0.1
2014-Oct-22 05:33N 48°08' W 123°27'0 0.0
2014-Oct-22 04:33N 48°08' W 123°27'0 0.0
2014-Oct-22 03:30N 48°08' W 123°27'0 0.0
2014-Oct-22 02:21N 48°08' W 123°27'0 0.1
2014-Oct-22 01:30N 48°08' W 123°27'0 0.0
2014-Oct-22 00:33N 48°08' W 123°27'0 0.0
2014-Oct-21 23:27N 48°08' W 123°27'0 0.0
2014-Oct-21 22:18N 48°08' W 123°27'0 0.1
2014-Oct-21 21:33N 48°08' W 123°27'0 0.0
2014-Oct-21 20:33N 48°08' W 123°27'0 0.0
2014-Oct-21 19:33N 48°08' W 123°27'0 0.1
2014-Oct-21 18:33N 48°08' W 123°27'0 0.1
2014-Oct-21 17:30N 48°08' W 123°27'0 0.0
2014-Oct-21 16:33N 48°08' W 123°27'0 0.0
2014-Oct-21 15:33N 48°08' W 123°27'0 0.0
2014-Oct-21 14:33N 48°08' W 123°27'0 0.0
2014-Oct-21 13:33N 48°08' W 123°27'0 0.0
2014-Oct-21 12:30N 48°08' W 123°27'0 0.0
2014-Oct-21 11:33N 48°08' W 123°27'0 0.1
2014-Oct-21 10:27N 48°08' W 123°27'0 0.0
2014-Oct-21 09:21N 48°08' W 123°27'0 0.1
2014-Oct-21 08:30N 48°08' W 123°27'0 0.0
2014-Oct-21 07:33N 48°08' W 123°27'0 0.0
2014-Oct-21 06:32N 48°08' W 123°27'0 0.0
2014-Oct-21 05:26N 48°08' W 123°27'0 0.1
2014-Oct-21 04:32N 48°08' W 123°27'0 0.0
2014-Oct-21 03:23N 48°08' W 123°27'0 0.0
2014-Oct-21 02:17N 48°08' W 123°27'0 0.1
2014-Oct-21 01:23N 48°08' W 123°27'0 0.1
2014-Oct-21 00:32N 48°08' W 123°27'0 0.0
2014-Oct-20 23:32N 48°08' W 123°27'0 0.0
2014-Oct-20 22:29N 48°08' W 123°27'0 0.1
2014-Oct-20 21:20N 48°08' W 123°27'0 0.1
2014-Oct-20 20:29N 48°08' W 123°27'0 0.0
2014-Oct-20 19:32N 48°08' W 123°27'0 0.1
2014-Oct-20 18:32N 48°08' W 123°27'0 0.0
2014-Oct-20 17:32N 48°08' W 123°27'0 0.0
2014-Oct-20 16:32N 48°08' W 123°27'0 0.0
2014-Oct-20 15:32N 48°08' W 123°27'0 0.0
2014-Oct-20 14:32N 48°08' W 123°27'0 0.0
2014-Oct-20 13:32N 48°08' W 123°27'0 0.0
2014-Oct-20 12:32N 48°08' W 123°27'0 0.1
2014-Oct-20 11:32N 48°08' W 123°27'0 0.0
2014-Oct-20 10:32N 48°08' W 123°27'0 0.0
2014-Oct-20 09:32N 48°08' W 123°27'0 0.1
2014-Oct-20 08:29N 48°08' W 123°27'0 0.1
2014-Oct-20 07:32N 48°08' W 123°27'0 0.1
2014-Oct-20 06:32N 48°08' W 123°27'0 0.0
2014-Oct-20 05:32N 48°08' W 123°27'0 0.0
2014-Oct-20 04:32N 48°08' W 123°27'0 0.0
2014-Oct-20 03:32N 48°08' W 123°27'0 0.0
2014-Oct-20 02:32N 48°08' W 123°27'0 0.1
2014-Oct-20 01:32N 48°08' W 123°27'0 0.0
2014-Oct-20 00:32N 48°08' W 123°27'0 0.1
2014-Oct-19 23:32N 48°08' W 123°27'0 0.0
2014-Oct-19 22:32N 48°08' W 123°27'0 0.0
2014-Oct-19 21:32N 48°08' W 123°27'0 0.0
2014-Oct-19 20:32N 48°08' W 123°27'0 0.0
2014-Oct-19 19:31N 48°08' W 123°27'0 0.1
2014-Oct-19 18:25N 48°08' W 123°27'0 0.1
2014-Oct-19 17:31N 48°08' W 123°27'0 0.0
2014-Oct-19 16:31N 48°08' W 123°27'0 0.0
2014-Oct-19 15:22N 48°08' W 123°27'0 0.0
2014-Oct-19 14:25N 48°08' W 123°27'0 0.0
2014-Oct-19 13:28N 48°08' W 123°27'0 0.0
2014-Oct-19 12:25N 48°08' W 123°27'0 0.0
2014-Oct-19 11:31N 48°08' W 123°27'0 0.0
2014-Oct-19 10:31N 48°08' W 123°27'0 0.0
2014-Oct-19 09:31N 48°08' W 123°27'0 0.1
2014-Oct-19 08:07N 48°08' W 123°27'0 0.1
2014-Oct-19 07:22N 48°08' W 123°27'0 0.1
2014-Oct-19 06:31N 48°08' W 123°27'0 0.0
2014-Oct-19 05:31N 48°08' W 123°27'0 0.0
2014-Oct-19 04:31N 48°08' W 123°27'0 0.0
2014-Oct-19 03:31N 48°08' W 123°27'0 0.1
2014-Oct-19 03:04N 48°08' W 123°27'0 0.0
2014-Oct-19 02:31N 48°08' W 123°27'0 0.0
2014-Oct-19 02:19N 48°08' W 123°27'0 0.0
2014-Oct-19 01:31N 48°08' W 123°27'0 0.0
2014-Oct-19 01:04N 48°08' W 123°27'0 0.0
2014-Oct-19 00:31N 48°08' W 123°27'0 0.3
2014-Oct-18 23:33N 48°08' W 123°26'1 5.0
2014-Oct-18 23:24N 48°08' W 123°25'6 6.4
2014-Oct-18 22:32N 48°11' W 123°18'3 7.3
2014-Oct-18 22:04N 48°13' W 123°14'4 6.9
2014-Oct-18 21:33N 48°15' W 123°10'2 5.5
2014-Oct-18 21:09N 48°17' W 123°07'5 7.0
2014-Oct-18 20:28N 48°19' W 123°01'1 6.9
2014-Oct-18 20:24N 48°19' W 123°01'4 4.8
2014-Oct-18 19:31N 48°22' W 122°55'5 6.1
2014-Oct-18 18:43N 48°24' W 122°49'1 5.3
2014-Oct-18 18:32N 48°25' W 122°48'5 5.6
2014-Oct-18 17:33N 48°30' W 122°44'3 5.8
2014-Oct-18 17:03N 48°33' W 122°45'3 6.2
2014-Oct-18 16:33N 48°36' W 122°45'6 6.4
2014-Oct-18 15:33N 48°42' W 122°45'8 5.5
2014-Oct-18 14:10N 48°50' W 122°43'0 0.0
2014-Oct-18 05:24N 48°49' W 122°43'0 0.0
2014-Oct-18 04:16N 48°49' W 122°43'0 0.0
2014-Oct-18 02:28N 48°49' W 122°43'0 0.0
2014-Oct-17 19:30N 48°49' W 122°43'0 0.0
2014-Oct-17 13:24N 48°49' W 122°43'0 0.0
2014-Oct-17 12:24N 48°49' W 122°43'0 0.0
2014-Oct-17 08:22N 48°49' W 122°43'0 0.0
2014-Oct-17 07:29N 48°49' W 122°43'0 0.0
2014-Oct-17 01:20N 48°50' W 122°43'1 0.9
2014-Oct-17 00:33N 48°49' W 122°43'6 6.0
2014-Oct-16 23:33N 48°43' W 122°44'7 7.0
2014-Oct-16 22:33N 48°38' W 122°36'6 6.1
2014-Oct-16 21:33N 48°44' W 122°32'0 0.1
2014-Oct-16 20:28N 48°44' W 122°32'0 0.0
2014-Oct-16 19:31N 48°44' W 122°32'0 0.0
2014-Oct-16 18:31N 48°44' W 122°32'0 0.0
2014-Oct-16 16:31N 48°44' W 122°32'0 0.0
2014-Oct-16 14:25N 48°44' W 122°32'0 0.0
2014-Oct-16 11:25N 48°44' W 122°32'0 0.0
2014-Oct-16 10:19N 48°44' W 122°32'0 0.0
2014-Oct-16 09:10N 48°44' W 122°32'0 0.0
2014-Oct-16 08:16N 48°44' W 122°32'0 0.0
2014-Oct-16 07:28N 48°44' W 122°32'0 0.0
2014-Oct-16 06:07N 48°44' W 122°32'0 0.0
2014-Oct-16 05:25N 48°44' W 122°32'0 0.0
2014-Oct-16 03:30N 48°44' W 122°32'0 0.0
2014-Oct-16 02:24N 48°44' W 122°32'0 0.0
2014-Oct-16 00:30N 48°44' W 122°32'0 0.0
2014-Oct-15 21:30N 48°44' W 122°32'0 0.0
2014-Oct-15 17:27N 48°44' W 122°32'0 0.0
2014-Oct-15 16:24N 48°44' W 122°32'0 0.2
2014-Oct-15 15:33N 48°44' W 122°32'0 0.0
2014-Oct-15 14:33N 48°44' W 122°32'0 0.0
2014-Oct-15 13:33N 48°44' W 122°32'0 0.0
2014-Oct-15 12:33N 48°44' W 122°32'0 0.0
2014-Oct-15 11:30N 48°44' W 122°32'0 0.0
2014-Oct-15 10:33N 48°44' W 122°32'0 0.0
2014-Oct-15 09:33N 48°44' W 122°32'0 0.0
2014-Oct-15 08:33N 48°44' W 122°32'0 0.0
2014-Oct-15 07:33N 48°44' W 122°32'0 0.0
2014-Oct-15 06:33N 48°44' W 122°32'0 0.0
2014-Oct-15 05:30N 48°44' W 122°32'0 0.0
2014-Oct-15 04:33N 48°44' W 122°32'0 0.0
2014-Oct-15 03:33N 48°44' W 122°32'0 0.0
2014-Oct-15 02:33N 48°44' W 122°32'0 0.0
2014-Oct-15 01:33N 48°44' W 122°32'0 0.0
2014-Oct-15 00:33N 48°44' W 122°32'0 0.1
2014-Oct-14 23:33N 48°44' W 122°32'0 0.0
2014-Oct-14 22:33N 48°44' W 122°32'0 0.0
2014-Oct-14 16:29N 48°44' W 122°32'0 0.0
2014-Oct-14 14:17N 48°44' W 122°32'0 0.0
2014-Oct-14 09:32N 48°44' W 122°32'0 0.0
2014-Oct-14 08:23N 48°44' W 122°32'0 0.1
2014-Oct-14 07:29N 48°44' W 122°32'0 0.0
2014-Oct-14 03:29N 48°44' W 122°32'5 4.9
2014-Oct-14 02:33N 48°39' W 122°34'3 3.4
2014-Oct-14 01:33N 48°37' W 122°38'3 3.4
2014-Oct-14 00:32N 48°39' W 122°34'4 3.4
2014-Oct-13 23:31N 48°43' W 122°33'1 0.7
2014-Oct-13 22:12N 48°42' W 122°33'2 2.5
2014-Oct-13 21:33N 48°44' W 122°33'1 0.7
2014-Oct-13 20:31N 48°44' W 122°32'0 0.2
2014-Oct-13 19:31N 48°44' W 122°32'0 0.0
2014-Oct-13 18:31N 48°44' W 122°32'0 0.0
2014-Oct-13 17:22N 48°44' W 122°32'0 0.0
2014-Oct-13 16:31N 48°44' W 122°32'0 0.0
2014-Oct-13 15:28N 48°44' W 122°32'0 0.0
2014-Oct-13 14:31N 48°44' W 122°32'0 0.0
2014-Oct-13 13:28N 48°44' W 122°32'0 0.0
2014-Oct-13 12:31N 48°44' W 122°32'0 0.0
2014-Oct-13 11:25N 48°44' W 122°32'  
Track history (hours):
 
Tides and Currents Weather Stations Pressure Air Temp Water Temp Dewpoint Dewpoint Depression Visibility Wind Speed Wind Dir Waves Ship Positions

Adriatic Sea

Owner: Kirby Offshore Marine, LLC, Seattle, WA. More information available from US FCC via Universal Licensing System and Coast Guard Vessel Documentation Center.

Last reported at 2014-Oct-23 11:14 UTC. Time now 2014-Oct-23 15:12 UTC.
Position N 48°04' W 125°09'.

Length 42 m; draft 16 m.

Type: Tug. MMSI: 366910890.

Date/timePositionNaut miles runAvg speedWind from/ knotsBaromVisibWave heightAir tempDewpointWater temp
2014-Oct-23 11:14N 48°04' W 125°09'4 4.7
2014-Oct-23 10:27N 48°07' W 125°07'4 4.6
2014-Oct-23 09:32N 48°11' W 125°04'4 4.3
2014-Oct-23 08:30N 48°16' W 125°02'4 4.3
2014-Oct-23 07:33N 48°19' W 124°59'4 4.4
2014-Oct-23 06:33N 48°23' W 124°57'4 4.2
2014-Oct-23 05:32N 48°26' W 124°52'6 5.8
2014-Oct-23 04:33N 48°26' W 124°44'8 7.6
2014-Oct-23 03:33N 48°23' W 124°33'8 7.8
2014-Oct-23 02:33N 48°20' W 124°23'7 7.4
2014-Oct-23 01:33N 48°17' W 124°12'7 6.6
2014-Oct-23 00:33N 48°14' W 124°03'5 5.5
2014-Oct-22 23:34N 48°12' W 123°56'6 5.6
2014-Oct-22 22:33N 48°11' W 123°47'6 6.1
2014-Oct-22 21:33N 48°11' W 123°38'5 5.3
2014-Oct-22 20:33N 48°11' W 123°30'5 5.5
2014-Oct-22 19:33N 48°08' W 123°23'3 2.0
2014-Oct-22 18:10N 48°08' W 123°27'0 0.1
2014-Oct-22 17:25N 48°08' W 123°27'0 0.0
2014-Oct-22 16:33N 48°08' W 123°27'0 0.0
2014-Oct-22 15:27N 48°08' W 123°27'0 0.0
2014-Oct-22 14:30N 48°08' W 123°27'0 0.0
2014-Oct-22 13:18N 48°08' W 123°27'0 0.0
2014-Oct-22 12:33N 48°08' W 123°27'0 0.0
2014-Oct-22 11:30N 48°08' W 123°27'0 0.1
2014-Oct-22 10:21N 48°08' W 123°27'0 0.0
2014-Oct-22 07:30N 48°08' W 123°27'0 0.0
2014-Oct-22 06:33N 48°08' W 123°27'0 0.1
2014-Oct-22 05:33N 48°08' W 123°27'0 0.0
2014-Oct-22 04:33N 48°08' W 123°27'0 0.0
2014-Oct-22 03:30N 48°08' W 123°27'0 0.0
2014-Oct-22 02:21N 48°08' W 123°27'0 0.1
2014-Oct-22 01:30N 48°08' W 123°27'0 0.0
2014-Oct-22 00:33N 48°08' W 123°27'0 0.0
2014-Oct-21 23:27N 48°08' W 123°27'0 0.0
2014-Oct-21 22:18N 48°08' W 123°27'0 0.1
2014-Oct-21 21:33N 48°08' W 123°27'0 0.0
2014-Oct-21 20:33N 48°08' W 123°27'0 0.0
2014-Oct-21 19:33N 48°08' W 123°27'0 0.1
2014-Oct-21 18:33N 48°08' W 123°27'0 0.1
2014-Oct-21 17:30N 48°08' W 123°27'0 0.0
2014-Oct-21 16:33N 48°08' W 123°27'0 0.0
2014-Oct-21 15:33N 48°08' W 123°27'0 0.0
2014-Oct-21 14:33N 48°08' W 123°27'0 0.0
2014-Oct-21 13:33N 48°08' W 123°27'0 0.0
2014-Oct-21 12:30N 48°08' W 123°27'0 0.0
2014-Oct-21 11:33N 48°08' W 123°27'0 0.1
2014-Oct-21 10:27N 48°08' W 123°27'0 0.0
2014-Oct-21 09:21N 48°08' W 123°27'0 0.1
2014-Oct-21 08:30N 48°08' W 123°27'0 0.0
2014-Oct-21 07:33N 48°08' W 123°27'0 0.0
2014-Oct-21 06:32N 48°08' W 123°27'0 0.0
2014-Oct-21 05:26N 48°08' W 123°27'0 0.1
2014-Oct-21 04:32N 48°08' W 123°27'0 0.0
2014-Oct-21 03:23N 48°08' W 123°27'0 0.0
2014-Oct-21 02:17N 48°08' W 123°27'0 0.1
2014-Oct-21 01:23N 48°08' W 123°27'0 0.1
2014-Oct-21 00:32N 48°08' W 123°27'0 0.0
2014-Oct-20 23:32N 48°08' W 123°27'0 0.0
2014-Oct-20 22:29N 48°08' W 123°27'0 0.1
2014-Oct-20 21:20N 48°08' W 123°27'0 0.1
2014-Oct-20 20:29N 48°08' W 123°27'0 0.0
2014-Oct-20 19:32N 48°08' W 123°27'0 0.1
2014-Oct-20 18:32N 48°08' W 123°27'0 0.0
2014-Oct-20 17:32N 48°08' W 123°27'0 0.0
2014-Oct-20 16:32N 48°08' W 123°27'0 0.0
2014-Oct-20 15:32N 48°08' W 123°27'0 0.0
2014-Oct-20 14:32N 48°08' W 123°27'0 0.0
2014-Oct-20 13:32N 48°08' W 123°27'0 0.0
2014-Oct-20 12:32N 48°08' W 123°27'0 0.1
2014-Oct-20 11:32N 48°08' W 123°27'0 0.0
2014-Oct-20 10:32N 48°08' W 123°27'0 0.0
2014-Oct-20 09:32N 48°08' W 123°27'0 0.1
2014-Oct-20 08:29N 48°08' W 123°27'0 0.1
2014-Oct-20 07:32N 48°08' W 123°27'0 0.1
2014-Oct-20 06:32N 48°08' W 123°27'0 0.0
2014-Oct-20 05:32N 48°08' W 123°27'0 0.0
2014-Oct-20 04:32N 48°08' W 123°27'0 0.0
2014-Oct-20 03:32N 48°08' W 123°27'0 0.0
2014-Oct-20 02:32N 48°08' W 123°27'0 0.1
2014-Oct-20 01:32N 48°08' W 123°27'0 0.0
2014-Oct-20 00:32N 48°08' W 123°27'0 0.1
2014-Oct-19 23:32N 48°08' W 123°27'0 0.0
2014-Oct-19 22:32N 48°08' W 123°27'0 0.0
2014-Oct-19 21:32N 48°08' W 123°27'0 0.0
2014-Oct-19 20:32N 48°08' W 123°27'0 0.0
2014-Oct-19 19:31N 48°08' W 123°27'0 0.1
2014-Oct-19 18:25N 48°08' W 123°27'0 0.1
2014-Oct-19 17:31N 48°08' W 123°27'0 0.0
2014-Oct-19 16:31N 48°08' W 123°27'0 0.0
2014-Oct-19 15:22N 48°08' W 123°27'0 0.0
2014-Oct-19 14:25N 48°08' W 123°27'0 0.0
2014-Oct-19 13:28N 48°08' W 123°27'0 0.0
2014-Oct-19 12:25N 48°08' W 123°27'0 0.0
2014-Oct-19 11:31N 48°08' W 123°27'0 0.0
2014-Oct-19 10:31N 48°08' W 123°27'0 0.0
2014-Oct-19 09:31N 48°08' W 123°27'0 0.1
2014-Oct-19 08:07N 48°08' W 123°27'0 0.1
2014-Oct-19 07:22N 48°08' W 123°27'0 0.1
2014-Oct-19 06:31N 48°08' W 123°27'0 0.0
2014-Oct-19 05:31N 48°08' W 123°27'0 0.0
2014-Oct-19 04:31N 48°08' W 123°27'0 0.0
2014-Oct-19 03:31N 48°08' W 123°27'0 0.1
2014-Oct-19 03:04N 48°08' W 123°27'0 0.0
2014-Oct-19 02:31N 48°08' W 123°27'0 0.0
2014-Oct-19 02:19N 48°08' W 123°27'0 0.0
2014-Oct-19 01:31N 48°08' W 123°27'0 0.0
2014-Oct-19 01:04N 48°08' W 123°27'0 0.0
2014-Oct-19 00:31N 48°08' W 123°27'0 0.3
2014-Oct-18 23:33N 48°08' W 123°26'1 5.0
2014-Oct-18 23:24N 48°08' W 123°25'6 6.4
2014-Oct-18 22:32N 48°11' W 123°18'3 7.3
2014-Oct-18 22:04N 48°13' W 123°14'4 6.9
2014-Oct-18 21:33N 48°15' W 123°10'2 5.5
2014-Oct-18 21:09N 48°17' W 123°07'5 7.0
2014-Oct-18 20:28N 48°19' W 123°01'1 6.9
2014-Oct-18 20:24N 48°19' W 123°01'4 4.8
2014-Oct-18 19:31N 48°22' W 122°55'5 6.1
2014-Oct-18 18:43N 48°24' W 122°49'1 5.3
2014-Oct-18 18:32N 48°25' W 122°48'5 5.6
2014-Oct-18 17:33N 48°30' W 122°44'3 5.8
2014-Oct-18 17:03N 48°33' W 122°45'3 6.2
2014-Oct-18 16:33N 48°36' W 122°45'6 6.4
2014-Oct-18 15:33N 48°42' W 122°45'8 5.5
2014-Oct-18 14:10N 48°50' W 122°43'0 0.0
2014-Oct-18 05:24N 48°49' W 122°43'0 0.0
2014-Oct-18 04:16N 48°49' W 122°43'0 0.0
2014-Oct-18 02:28N 48°49' W 122°43'0 0.0
2014-Oct-17 19:30N 48°49' W 122°43'0 0.0
2014-Oct-17 13:24N 48°49' W 122°43'0 0.0
2014-Oct-17 12:24N 48°49' W 122°43'0 0.0
2014-Oct-17 08:22N 48°49' W 122°43'0 0.0
2014-Oct-17 07:29N 48°49' W 122°43'0 0.0
2014-Oct-17 01:20N 48°50' W 122°43'1 0.9
2014-Oct-17 00:33N 48°49' W 122°43'6 6.0
2014-Oct-16 23:33N 48°43' W 122°44'7 7.0
2014-Oct-16 22:33N 48°38' W 122°36'6 6.1
2014-Oct-16 21:33N 48°44' W 122°32'0 0.1
2014-Oct-16 20:28N 48°44' W 122°32'0 0.0
2014-Oct-16 19:31N 48°44' W 122°32'0 0.0
2014-Oct-16 18:31N 48°44' W 122°32'0 0.0
2014-Oct-16 16:31N 48°44' W 122°32'0 0.0
2014-Oct-16 14:25N 48°44' W 122°32'0 0.0
2014-Oct-16 11:25N 48°44' W 122°32'0 0.0
2014-Oct-16 10:19N 48°44' W 122°32'0 0.0
2014-Oct-16 09:10N 48°44' W 122°32'0 0.0
2014-Oct-16 08:16N 48°44' W 122°32'0 0.0
2014-Oct-16 07:28N 48°44' W 122°32'0 0.0
2014-Oct-16 06:07N 48°44' W 122°32'0 0.0
2014-Oct-16 05:25N 48°44' W 122°32'0 0.0
2014-Oct-16 03:30N 48°44' W 122°32'0 0.0
2014-Oct-16 02:24N 48°44' W 122°32'0 0.0
2014-Oct-16 00:30N 48°44' W 122°32'0 0.0
2014-Oct-15 21:30N 48°44' W 122°32'0 0.0
2014-Oct-15 17:27N 48°44' W 122°32'0 0.0
2014-Oct-15 16:24N 48°44' W 122°32'0 0.2
2014-Oct-15 15:33N 48°44' W 122°32'0 0.0
2014-Oct-15 14:33N 48°44' W 122°32'0 0.0
2014-Oct-15 13:33N 48°44' W 122°32'0 0.0
2014-Oct-15 12:33N 48°44' W 122°32'0 0.0
2014-Oct-15 11:30N 48°44' W 122°32'0 0.0
2014-Oct-15 10:33N 48°44' W 122°32'0 0.0
2014-Oct-15 09:33N 48°44' W 122°32'0 0.0
2014-Oct-15 08:33N 48°44' W 122°32'0 0.0
2014-Oct-15 07:33N 48°44' W 122°32'0 0.0
2014-Oct-15 06:33N 48°44' W 122°32'0 0.0
2014-Oct-15 05:30N 48°44' W 122°32'0 0.0
2014-Oct-15 04:33N 48°44' W 122°32'0 0.0
2014-Oct-15 03:33N 48°44' W 122°32'0 0.0
2014-Oct-15 02:33N 48°44' W 122°32'0 0.0
2014-Oct-15 01:33N 48°44' W 122°32'0 0.0
2014-Oct-15 00:33N 48°44' W 122°32'0 0.1
2014-Oct-14 23:33N 48°44' W 122°32'0 0.0
2014-Oct-14 22:33N 48°44' W 122°32'0 0.0
2014-Oct-14 16:29N 48°44' W 122°32'0 0.0
2014-Oct-14 14:17N 48°44' W 122°32'0 0.0
2014-Oct-14 09:32N 48°44' W 122°32'0 0.0
2014-Oct-14 08:23N 48°44' W 122°32'0 0.1
2014-Oct-14 07:29N 48°44' W 122°32'0 0.0
2014-Oct-14 03:29N 48°44' W 122°32'5 4.9
2014-Oct-14 02:33N 48°39' W 122°34'3 3.4
2014-Oct-14 01:33N 48°37' W 122°38'3 3.4
2014-Oct-14 00:32N 48°39' W 122°34'4 3.4
2014-Oct-13 23:31N 48°43' W 122°33'1 0.7
2014-Oct-13 22:12N 48°42' W 122°33'2 2.5
2014-Oct-13 21:33N 48°44' W 122°33'1 0.7
2014-Oct-13 20:31N 48°44' W 122°32'0 0.2
2014-Oct-13 19:31N 48°44' W 122°32'0 0.0
2014-Oct-13 18:31N 48°44' W 122°32'0 0.0
2014-Oct-13 17:22N 48°44' W 122°32'0 0.0
2014-Oct-13 16:31N 48°44' W 122°32'0 0.0
2014-Oct-13 15:28N 48°44' W 122°32'0 0.0
2014-Oct-13 14:31N 48°44' W 122°32'0 0.0
2014-Oct-13 13:28N 48°44' W 122°32'0 0.0
2014-Oct-13 12:31N 48°44' W 122°32'0 0.0
2014-Oct-13 11:25N 48°44' W 122°32'  

Dump ship's entire track history